createdAt,value
2023-02-14T00:01:20.599Z,38.45
2023-02-14T00:03:49.389Z,39.80
2023-02-14T00:06:16.921Z,38.53
2023-02-14T00:08:44.978Z,38.35
2023-02-14T00:11:13.404Z,38.92
2023-02-14T00:14:00.850Z,38.97
2023-02-14T00:16:28.400Z,40.80
2023-02-14T00:19:04.956Z,37.47
2023-02-14T00:21:35.928Z,40.20
2023-02-14T00:24:04.363Z,39.13
2023-02-14T00:26:31.784Z,41.55
2023-02-14T00:28:59.241Z,40.53
2023-02-14T00:31:26.841Z,38.97
2023-02-14T00:33:55.817Z,38.45
2023-02-14T00:36:23.237Z,36.00
2023-02-14T00:38:51.016Z,40.72
2023-02-14T00:41:21.308Z,39.45
2023-02-14T00:43:49.678Z,45.17
2023-02-14T00:46:18.300Z,39.67
2023-02-14T00:48:45.891Z,38.97
2023-02-14T00:51:13.942Z,41.53
2023-02-14T00:53:41.639Z,39.30
2023-02-14T00:56:09.268Z,38.90
2023-02-14T00:58:36.814Z,36.08
2023-02-14T01:01:04.434Z,40.08
2023-02-14T01:03:32.321Z,39.08
2023-02-14T01:05:59.758Z,41.05
2023-02-14T01:08:27.274Z,37.65
2023-02-14T01:10:54.706Z,39.15
2023-02-14T01:13:22.555Z,40.75
2023-02-14T01:15:51.374Z,39.65
2023-02-14T01:18:19.622Z,37.15
2023-02-14T01:20:49.296Z,35.17
2023-02-14T01:23:16.760Z,33.47
2023-02-14T01:25:44.161Z,34.35
2023-02-14T01:28:11.659Z,33.15
2023-02-14T01:30:40.828Z,34.10
2023-02-14T01:33:10.474Z,35.58
2023-02-14T01:35:38.845Z,36.50
2023-02-14T01:38:06.385Z,31.05
2023-02-14T01:40:34.507Z,31.90
2023-02-14T01:43:05.083Z,33.13
2023-02-14T01:45:32.707Z,32.10
2023-02-14T01:48:00.170Z,34.08
2023-02-14T01:50:32.516Z,34.15
2023-02-14T01:53:02.519Z,34.25
2023-02-14T01:55:32.283Z,34.03
2023-02-14T01:58:03.334Z,29.70
2023-02-14T02:00:50.134Z,34.65
2023-02-14T02:03:18.515Z,36.65
2023-02-14T02:05:49.346Z,34.13
2023-02-14T02:08:17.013Z,35.38
2023-02-14T02:10:44.955Z,33.28
2023-02-14T02:13:19.763Z,36.22
2023-02-14T02:15:56.250Z,41.50
2023-02-14T02:18:23.715Z,33.47
2023-02-14T02:20:55.192Z,34.25
2023-02-14T02:23:33.019Z,36.05
2023-02-14T02:26:03.465Z,34.47
2023-02-14T02:28:43.163Z,38.90
2023-02-14T02:31:13.727Z,37.03
2023-02-14T02:33:41.319Z,32.70
2023-02-14T02:36:41.336Z,35.17
2023-02-14T02:39:08.832Z,35.75
2023-02-14T02:41:42.304Z,35.20
2023-02-14T02:44:12.829Z,36.38
2023-02-14T02:46:50.110Z,32.70
2023-02-14T02:49:51.271Z,34.70
2023-02-14T02:52:37.222Z,31.02
2023-02-14T02:55:07.811Z,34.72
2023-02-14T02:57:37.547Z,36.00
2023-02-14T03:00:06.693Z,32.70
2023-02-14T03:02:56.786Z,33.55
2023-02-14T03:05:24.432Z,33.10
2023-02-14T03:07:52.197Z,35.50
2023-02-14T03:10:21.928Z,35.40
2023-02-14T03:13:09.221Z,35.05
2023-02-14T03:15:36.749Z,33.78
2023-02-14T03:18:13.866Z,37.35
2023-02-14T03:21:04.315Z,36.03
2023-02-14T03:23:36.091Z,35.70
2023-02-14T03:26:43.663Z,33.13
2023-02-14T03:29:17.609Z,36.25
2023-02-14T03:31:57.135Z,31.63
2023-02-14T03:34:34.093Z,35.35
2023-02-14T03:37:23.235Z,35.08
2023-02-14T03:39:50.818Z,36.28
2023-02-14T03:42:42.181Z,40.95
2023-02-14T03:45:11.534Z,40.55
2023-02-14T03:47:41.905Z,42.13
2023-02-14T03:50:17.744Z,39.78
2023-02-14T03:52:45.816Z,39.35
2023-02-14T03:55:15.724Z,38.00
2023-02-14T03:58:01.623Z,45.92
2023-02-14T04:00:31.221Z,35.38
2023-02-14T04:03:02.179Z,40.58
2023-02-14T04:05:29.685Z,38.50
2023-02-14T04:07:58.348Z,42.70
2023-02-14T04:10:26.234Z,40.45
2023-02-14T04:12:54.002Z,39.65
2023-02-14T04:15:21.455Z,37.55
2023-02-14T04:18:07.439Z,38.30
2023-02-14T04:20:34.945Z,41.53
2023-02-14T04:23:03.551Z,43.10
2023-02-14T04:25:31.153Z,40.40
2023-02-14T04:27:58.609Z,38.08
2023-02-14T04:30:26.059Z,39.20
2023-02-14T04:32:53.658Z,42.10
2023-02-14T04:35:21.092Z,39.78
2023-02-14T04:37:48.563Z,37.30
2023-02-14T04:40:17.565Z,38.90
2023-02-14T04:42:45.608Z,38.75
2023-02-14T04:45:13.164Z,41.20
2023-02-14T04:47:40.799Z,40.13
2023-02-14T04:50:08.622Z,41.72
2023-02-14T04:52:36.149Z,41.42
2023-02-14T04:55:04.565Z,43.70
2023-02-14T04:57:32.124Z,46.08
2023-02-14T04:59:59.557Z,42.50
2023-02-14T05:02:27.076Z,40.92
2023-02-14T05:04:54.534Z,48.35
2023-02-14T05:07:21.970Z,46.63
2023-02-14T05:09:49.503Z,48.53
2023-02-14T05:12:17.396Z,47.28
2023-02-14T05:14:44.853Z,44.80
2023-02-14T05:17:12.338Z,45.47
2023-02-14T05:19:39.718Z,50.83
2023-02-14T05:22:07.429Z,55.00
2023-02-14T05:24:35.040Z,59.38
2023-02-14T05:27:02.513Z,64.22
2023-02-14T05:29:29.967Z,59.45
2023-02-14T05:31:57.529Z,62.35
2023-02-14T05:34:24.907Z,62.95
2023-02-14T05:36:52.404Z,54.80
2023-02-14T05:39:19.861Z,56.70
2023-02-14T05:41:47.342Z,55.45
2023-02-14T05:44:14.707Z,52.83
2023-02-14T05:46:42.172Z,50.13
2023-02-14T05:49:09.739Z,51.60
2023-02-14T05:51:37.277Z,50.80
2023-02-14T05:54:04.743Z,54.53
2023-02-14T05:56:32.208Z,51.83
2023-02-14T05:58:59.751Z,50.53
2023-02-14T06:01:27.261Z,58.60
2023-02-14T06:03:54.758Z,57.35
2023-02-14T06:06:22.187Z,50.55
2023-02-14T06:08:49.828Z,50.08
2023-02-14T06:11:17.233Z,51.90
2023-02-14T06:13:44.966Z,49.45
2023-02-14T06:16:12.423Z,43.83
2023-02-14T06:18:39.908Z,44.55
2023-02-14T06:21:07.415Z,47.25
2023-02-14T06:23:34.867Z,42.90
2023-02-14T06:26:02.405Z,46.30
2023-02-14T06:28:29.859Z,44.72
2023-02-14T06:30:57.598Z,46.03
2023-02-14T06:33:25.092Z,45.42
2023-02-14T06:35:54.477Z,43.75
2023-02-14T06:38:21.901Z,44.03
2023-02-14T06:40:49.280Z,43.55
2023-02-14T06:43:16.734Z,43.13
2023-02-14T06:45:44.380Z,47.08
2023-02-14T06:48:11.942Z,46.80
2023-02-14T06:50:39.306Z,44.72
2023-02-14T06:53:06.750Z,48.28
2023-02-14T06:55:34.209Z,48.33
2023-02-14T06:58:01.676Z,46.28
2023-02-14T07:00:29.080Z,45.47
2023-02-14T07:02:56.583Z,42.08
2023-02-14T07:05:24.113Z,40.67
2023-02-14T07:07:51.841Z,37.78
2023-02-14T07:10:19.383Z,40.20
2023-02-14T07:12:46.810Z,44.50
2023-02-14T07:15:14.485Z,45.03
2023-02-14T07:17:42.150Z,52.33
2023-02-14T07:20:11.122Z,50.67
2023-02-14T07:22:39.178Z,51.47
2023-02-14T07:25:07.768Z,47.10
2023-02-14T07:27:35.365Z,52.35
2023-02-14T07:30:02.902Z,47.28
2023-02-14T07:32:30.417Z,53.75
2023-02-14T07:34:57.858Z,55.33
2023-02-14T07:37:25.327Z,53.53
2023-02-14T07:39:52.834Z,55.15
2023-02-14T07:42:20.294Z,57.58
2023-02-14T07:44:47.758Z,58.28
2023-02-14T07:47:15.195Z,59.17
2023-02-14T07:49:42.606Z,61.72
2023-02-14T07:52:10.375Z,65.70
2023-02-14T07:54:38.834Z,59.67
2023-02-14T07:57:06.324Z,62.30
2023-02-14T07:59:33.791Z,61.13
2023-02-14T08:02:01.233Z,66.75
2023-02-14T08:04:29.100Z,59.92
2023-02-14T08:06:56.592Z,66.55
2023-02-14T08:09:24.876Z,66.03
2023-02-14T08:12:14.863Z,70.03
2023-02-14T08:14:42.760Z,73.25
2023-02-14T08:17:10.953Z,74.32
2023-02-14T08:19:38.486Z,75.05
2023-02-14T08:22:06.234Z,71.32
2023-02-14T08:24:33.687Z,64.78
2023-02-14T08:27:01.127Z,60.92
2023-02-14T08:29:28.623Z,67.20
2023-02-14T08:31:56.133Z,68.88
2023-02-14T08:34:23.689Z,66.80
2023-02-14T08:36:52.125Z,69.13
2023-02-14T08:39:19.517Z,67.82
2023-02-14T08:41:46.916Z,70.35
2023-02-14T08:44:16.495Z,68.93
2023-02-14T08:46:44.063Z,65.72
2023-02-14T08:49:11.535Z,68.35
2023-02-14T08:51:39.026Z,66.38
2023-02-14T08:54:06.869Z,75.10
2023-02-14T08:56:34.333Z,67.20
2023-02-14T08:59:01.837Z,62.40
2023-02-14T09:01:29.432Z,64.40
2023-02-14T09:03:57.112Z,64.63
2023-02-14T09:06:24.806Z,61.05
2023-02-14T09:08:54.272Z,60.17
2023-02-14T09:11:23.921Z,63.42
2023-02-14T09:13:53.250Z,65.45
2023-02-14T09:16:21.258Z,65.78
2023-02-14T09:18:49.549Z,71.60
2023-02-14T09:21:21.798Z,71.68
2023-02-14T09:23:49.266Z,71.25
2023-02-14T09:26:16.980Z,69.53
2023-02-14T09:28:44.576Z,66.95
2023-02-14T09:31:19.487Z,69.13
2023-02-14T09:33:47.771Z,66.65
2023-02-14T09:36:34.039Z,70.32
2023-02-14T09:39:03.042Z,68.47
2023-02-14T09:41:30.527Z,67.28
2023-02-14T09:44:02.684Z,68.78
2023-02-14T09:46:31.717Z,78.28
2023-02-14T09:48:59.508Z,78.13
2023-02-14T09:51:28.537Z,77.10
2023-02-14T09:53:56.082Z,77.95
2023-02-14T09:56:26.598Z,83.00
2023-02-14T09:58:54.103Z,78.75
2023-02-14T10:01:27.845Z,86.00
2023-02-14T10:04:01.701Z,86.93
2023-02-14T10:06:32.131Z,85.00
2023-02-14T10:09:09.443Z,90.22
2023-02-14T10:11:38.240Z,90.15
2023-02-14T10:14:10.805Z,92.95
2023-02-14T10:16:44.735Z,89.57
2023-02-14T10:19:22.454Z,88.82
2023-02-14T10:21:54.371Z,86.97
2023-02-14T10:24:28.033Z,80.55
2023-02-14T10:27:12.277Z,79.57
2023-02-14T10:29:40.206Z,85.35
2023-02-14T10:32:13.872Z,89.57
2023-02-14T10:34:41.604Z,76.90
2023-02-14T10:37:21.485Z,70.65
2023-02-14T10:39:58.448Z,73.65
2023-02-14T10:42:52.118Z,78.32
2023-02-14T10:45:19.693Z,84.45
2023-02-14T10:48:09.172Z,85.07
2023-02-14T10:50:56.911Z,78.78
2023-02-14T10:53:24.775Z,74.47
2023-02-14T10:56:09.725Z,76.63
2023-02-14T10:58:39.342Z,68.93
2023-02-14T11:01:09.225Z,60.88
2023-02-14T11:03:38.009Z,53.70
2023-02-14T11:06:05.518Z,61.65
2023-02-14T11:08:34.513Z,49.05
2023-02-14T11:11:05.017Z,55.70
2023-02-14T11:13:34.645Z,51.85
2023-02-14T11:16:06.568Z,53.92
2023-02-14T11:18:36.228Z,46.95
2023-02-14T11:21:06.522Z,43.65
2023-02-14T11:23:35.449Z,50.17
2023-02-14T11:26:03.779Z,49.30
2023-02-14T11:28:31.727Z,48.22
2023-02-14T11:30:59.723Z,50.50
2023-02-14T11:33:34.000Z,46.38
2023-02-14T11:36:03.220Z,45.95
2023-02-14T11:38:34.827Z,44.58
2023-02-14T11:41:02.996Z,45.78
2023-02-14T11:43:34.571Z,37.08
2023-02-14T11:46:13.666Z,35.53
2023-02-14T11:48:55.455Z,34.70
2023-02-14T11:51:27.643Z,35.25
2023-02-14T11:53:56.662Z,33.90
2023-02-14T11:56:24.858Z,34.40
2023-02-14T11:58:52.572Z,31.80
2023-02-14T12:01:25.355Z,30.38
2023-02-14T12:03:53.751Z,32.55
2023-02-14T12:06:25.482Z,28.65
2023-02-14T12:08:53.040Z,28.20
2023-02-14T12:11:20.685Z,28.58
2023-02-14T12:13:55.201Z,27.23
2023-02-14T12:16:27.462Z,29.65
2023-02-14T12:18:55.730Z,33.95
2023-02-14T12:21:32.333Z,29.15
2023-02-14T12:24:12.757Z,28.38
2023-02-14T12:26:46.848Z,29.98
2023-02-14T12:29:26.526Z,31.23
2023-02-14T12:31:55.591Z,40.70
2023-02-14T12:34:23.165Z,31.20
2023-02-14T12:36:50.666Z,37.85
2023-02-14T12:39:44.439Z,34.00
2023-02-14T12:42:41.131Z,37.13
2023-02-14T12:45:16.758Z,31.13
2023-02-14T12:48:07.439Z,31.73
2023-02-14T12:50:38.464Z,32.47
2023-02-14T12:53:06.150Z,33.42
2023-02-14T12:55:46.099Z,38.78
2023-02-14T12:58:32.385Z,39.17
2023-02-14T13:01:06.039Z,36.97
2023-02-14T13:03:39.187Z,32.33
2023-02-14T13:06:25.547Z,33.75
2023-02-14T13:09:08.139Z,30.13
2023-02-14T13:11:55.731Z,39.58
2023-02-14T13:14:32.226Z,32.15
2023-02-14T13:17:18.379Z,29.85
2023-02-14T13:19:54.978Z,32.40
2023-02-14T13:22:23.641Z,28.38
2023-02-14T13:24:59.769Z,27.90
2023-02-14T13:27:29.956Z,24.33
2023-02-14T13:30:00.239Z,23.48
2023-02-14T13:32:31.707Z,31.42
2023-02-14T13:34:59.521Z,24.35
2023-02-14T13:37:27.489Z,28.00
2023-02-14T13:40:09.219Z,26.52
2023-02-14T13:42:48.866Z,24.20
2023-02-14T13:45:40.364Z,23.98
2023-02-14T13:48:13.701Z,26.08
2023-02-14T13:50:49.894Z,23.42
2023-02-14T13:53:36.374Z,29.05
2023-02-14T13:56:05.745Z,26.17
2023-02-14T13:58:34.609Z,27.83
2023-02-14T14:01:22.008Z,26.90
2023-02-14T14:03:57.072Z,26.58
2023-02-14T14:06:24.616Z,27.75
2023-02-14T14:08:55.057Z,28.10
2023-02-14T14:11:22.505Z,27.23
2023-02-14T14:13:53.110Z,31.70
2023-02-14T14:16:26.820Z,28.35
2023-02-14T14:18:56.271Z,28.48
2023-02-14T14:21:31.338Z,28.73
2023-02-14T14:24:17.372Z,30.50
2023-02-14T14:26:50.104Z,33.58
2023-02-14T14:29:26.712Z,35.25
2023-02-14T14:31:57.380Z,34.10
2023-02-14T14:34:26.670Z,34.38
2023-02-14T14:37:04.673Z,31.60
2023-02-14T14:39:33.919Z,36.22
2023-02-14T14:42:09.774Z,32.38
2023-02-14T14:44:37.799Z,42.80
2023-02-14T14:47:05.396Z,39.53
2023-02-14T14:49:33.271Z,36.17
2023-02-14T14:52:00.739Z,37.85
2023-02-14T14:54:30.149Z,35.20
2023-02-14T14:57:01.569Z,34.83
2023-02-14T14:59:35.523Z,34.15
2023-02-14T15:02:03.732Z,28.55
2023-02-14T15:04:35.334Z,28.85
2023-02-14T15:07:19.683Z,30.27
2023-02-14T15:09:47.700Z,26.58
2023-02-14T15:12:36.387Z,31.55
2023-02-14T15:15:05.710Z,35.78
2023-02-14T15:17:33.651Z,28.08
2023-02-14T15:20:02.543Z,29.80
2023-02-14T15:22:42.060Z,26.42
2023-02-14T15:25:11.453Z,26.33
2023-02-14T15:27:42.349Z,24.23
2023-02-14T15:30:23.818Z,30.05
2023-02-14T15:32:52.105Z,31.42
2023-02-14T15:35:24.057Z,27.60
2023-02-14T15:37:52.104Z,31.23
2023-02-14T15:40:24.518Z,27.42
2023-02-14T15:42:57.483Z,26.25
2023-02-14T15:45:30.894Z,30.42
2023-02-14T15:48:06.312Z,28.73
2023-02-14T15:53:09.108Z,30.48
2023-02-14T15:55:37.040Z,38.05
2023-02-14T15:58:06.260Z,33.20
2023-02-14T16:00:34.018Z,34.17
2023-02-14T16:03:03.106Z,30.58
2023-02-14T16:05:30.625Z,30.88
2023-02-14T16:07:58.308Z,25.92
2023-02-14T16:10:34.997Z,28.77
2023-02-14T16:13:06.789Z,28.50
2023-02-14T16:15:35.646Z,30.80
2023-02-14T16:18:08.298Z,30.30
2023-02-14T16:20:40.383Z,28.30
2023-02-14T16:23:16.868Z,28.60
2023-02-14T16:25:44.892Z,42.22
2023-02-14T16:28:12.280Z,37.45
2023-02-14T16:30:40.156Z,33.33
2023-02-14T16:33:13.538Z,27.75
2023-02-14T16:35:40.993Z,29.33
2023-02-14T16:38:12.648Z,25.05
2023-02-14T16:40:43.056Z,24.50
2023-02-14T16:43:14.651Z,26.20
2023-02-14T16:45:42.934Z,22.98
2023-02-14T16:48:10.552Z,27.30
2023-02-14T16:50:39.288Z,28.70
2023-02-14T16:53:13.840Z,22.63
2023-02-14T16:55:41.456Z,24.73
2023-02-14T16:58:09.471Z,27.50
2023-02-14T17:00:38.458Z,19.45
2023-02-14T17:03:10.894Z,22.10
2023-02-14T17:05:38.690Z,23.55
2023-02-14T17:08:07.144Z,22.25
2023-02-14T17:10:35.056Z,22.23
2023-02-14T17:13:03.489Z,25.25
2023-02-14T17:15:31.182Z,26.63
2023-02-14T17:18:01.508Z,23.50
2023-02-14T17:20:29.827Z,29.90
2023-02-14T17:22:58.442Z,29.17
2023-02-14T17:25:26.142Z,26.02
2023-02-14T17:27:53.893Z,25.08
2023-02-14T17:30:21.333Z,24.90
2023-02-14T17:32:49.725Z,25.85
2023-02-14T17:35:17.424Z,48.85
2023-02-14T17:37:45.385Z,55.45
2023-02-14T17:40:13.034Z,62.83
2023-02-14T17:42:40.450Z,63.22
2023-02-14T17:45:08.540Z,67.00
2023-02-14T17:47:36.021Z,74.03
2023-02-14T17:50:04.016Z,94.50
2023-02-14T17:52:32.198Z,115.20
2023-02-14T17:55:00.083Z,99.10
2023-02-14T17:57:27.605Z,78.07
2023-02-14T17:59:55.192Z,84.68
2023-02-14T18:02:22.755Z,75.53
2023-02-14T18:04:50.152Z,55.85
2023-02-14T18:07:17.598Z,54.40
2023-02-14T18:09:45.057Z,38.10
2023-02-14T18:12:15.040Z,26.88
2023-02-14T18:14:42.899Z,27.83
2023-02-14T18:17:12.154Z,29.52
2023-02-14T18:19:39.590Z,26.08
2023-02-14T18:22:06.965Z,30.80
2023-02-14T18:24:36.189Z,27.83
2023-02-14T18:27:05.899Z,25.40
2023-02-14T18:29:34.029Z,26.40
2023-02-14T18:32:01.505Z,29.80
2023-02-14T18:34:30.017Z,28.55
2023-02-14T18:36:57.482Z,25.15
2023-02-14T18:39:25.825Z,25.75
2023-02-14T18:41:53.266Z,28.08
2023-02-14T18:44:21.959Z,30.10
2023-02-14T18:46:49.445Z,28.23
2023-02-14T18:49:16.795Z,27.20
2023-02-14T18:51:44.374Z,31.55
2023-02-14T18:54:12.015Z,29.30
2023-02-14T18:56:39.971Z,31.73
2023-02-14T18:59:08.733Z,31.73
2023-02-14T19:01:37.610Z,31.60
2023-02-14T19:04:06.425Z,27.67
2023-02-14T19:06:34.623Z,32.90
2023-02-14T19:09:03.145Z,32.45
2023-02-14T19:11:32.793Z,33.13
2023-02-14T19:14:01.384Z,32.03
2023-02-14T19:16:31.752Z,33.38
2023-02-14T19:18:59.904Z,33.05
2023-02-14T19:21:30.474Z,36.80
2023-02-14T19:23:58.539Z,33.05
2023-02-14T19:26:27.260Z,38.17
2023-02-14T19:28:56.380Z,39.50
2023-02-14T19:31:24.270Z,38.03
2023-02-14T19:33:51.985Z,39.03
2023-02-14T19:36:20.956Z,38.38
2023-02-14T19:38:50.521Z,40.55
2023-02-14T19:41:19.424Z,41.60
2023-02-14T19:43:47.707Z,37.80
2023-02-14T19:46:15.766Z,38.25
2023-02-14T19:48:44.585Z,36.80
2023-02-14T19:51:25.726Z,33.80
2023-02-14T19:53:53.602Z,37.03
2023-02-14T19:56:25.935Z,36.88
2023-02-14T19:58:53.949Z,35.17
2023-02-14T20:01:27.321Z,36.90
2023-02-14T20:03:54.972Z,36.17
2023-02-14T20:06:22.961Z,36.45
2023-02-14T20:08:50.481Z,38.05
2023-02-14T20:11:20.895Z,37.90
2023-02-14T20:13:48.360Z,35.38
2023-02-14T20:16:15.819Z,34.28
2023-02-14T20:18:43.302Z,36.65
2023-02-14T20:21:16.728Z,34.03
2023-02-14T20:23:44.811Z,31.75
2023-02-14T20:26:15.901Z,39.00
2023-02-14T20:28:43.413Z,33.35
2023-02-14T20:31:12.146Z,35.38
2023-02-14T20:33:39.637Z,37.95
2023-02-14T20:36:08.103Z,38.05
2023-02-14T20:38:35.840Z,35.92
2023-02-14T20:41:08.639Z,36.35
2023-02-14T20:43:36.237Z,35.15
2023-02-14T20:46:04.494Z,40.08
2023-02-14T20:48:32.143Z,37.60
2023-02-14T20:51:00.310Z,40.40
2023-02-14T20:53:27.849Z,36.45
2023-02-14T20:55:55.232Z,35.45
2023-02-14T20:58:22.628Z,37.90
2023-02-14T21:00:50.155Z,35.50
2023-02-14T21:03:17.557Z,36.67
2023-02-14T21:05:48.255Z,39.25
2023-02-14T21:08:16.182Z,31.90
2023-02-14T21:10:43.665Z,35.45
2023-02-14T21:13:11.181Z,37.63
2023-02-14T21:15:38.607Z,31.45
2023-02-14T21:18:06.175Z,34.40
2023-02-14T21:20:33.609Z,34.22
2023-02-14T21:23:01.067Z,36.67
2023-02-14T21:25:28.553Z,36.42
2023-02-14T21:27:55.986Z,38.50
2023-02-14T21:30:23.444Z,35.03
2023-02-14T21:32:51.016Z,34.90
2023-02-14T21:35:18.403Z,35.47
2023-02-14T21:37:45.777Z,33.85
2023-02-14T21:40:13.280Z,33.60
2023-02-14T21:42:40.769Z,37.95
2023-02-14T21:45:27.242Z,33.97
2023-02-14T21:48:14.950Z,37.75
2023-02-14T21:50:42.628Z,36.45
2023-02-14T21:53:10.127Z,33.25
2023-02-14T21:55:38.559Z,37.83
2023-02-14T21:58:05.957Z,32.30
2023-02-14T22:00:33.404Z,37.55
2023-02-14T22:03:00.906Z,34.55
2023-02-14T22:05:28.413Z,36.58
2023-02-14T22:07:55.776Z,35.25
2023-02-14T22:10:23.205Z,32.58
2023-02-14T22:12:50.681Z,37.55
2023-02-14T22:15:18.212Z,35.38
2023-02-14T22:17:46.122Z,39.75
2023-02-14T22:20:13.572Z,35.80
2023-02-14T22:22:41.054Z,33.13
2023-02-14T22:25:08.653Z,40.17
2023-02-14T22:27:38.901Z,32.08
2023-02-14T22:30:07.258Z,33.63
2023-02-14T22:32:34.696Z,36.08
2023-02-14T22:35:02.186Z,36.10
2023-02-14T22:37:29.713Z,36.05
2023-02-14T22:39:57.190Z,36.45
2023-02-14T22:42:24.564Z,30.58
2023-02-14T22:44:52.029Z,33.83
2023-02-14T22:47:19.407Z,35.42
2023-02-14T22:49:46.826Z,33.00
2023-02-14T22:52:14.237Z,35.13
2023-02-14T22:54:41.748Z,33.40
2023-02-14T22:57:09.143Z,33.22
2023-02-14T22:59:36.560Z,35.17
2023-02-14T23:02:04.004Z,33.38
2023-02-14T23:04:31.650Z,36.63
2023-02-14T23:06:59.078Z,50.53
2023-02-14T23:09:26.615Z,41.30
2023-02-14T23:11:54.060Z,36.97
2023-02-14T23:14:40.048Z,37.80
2023-02-14T23:17:26.089Z,34.95
2023-02-14T23:20:12.158Z,36.78
2023-02-14T23:22:41.171Z,39.65
2023-02-14T23:25:10.073Z,34.17
2023-02-14T23:27:43.216Z,46.08
2023-02-14T23:30:12.394Z,39.72
2023-02-14T23:32:39.913Z,36.13
2023-02-14T23:35:07.643Z,36.08
2023-02-14T23:37:35.046Z,34.78
2023-02-14T23:40:02.544Z,37.92
2023-02-14T23:42:30.109Z,35.10
2023-02-14T23:45:17.631Z,36.47
2023-02-14T23:47:45.240Z,33.80
2023-02-14T23:50:12.660Z,34.45
2023-02-14T23:52:41.854Z,32.20
2023-02-14T23:55:09.539Z,32.20
2023-02-14T23:57:37.201Z,32.30
